createdAt,value
2023-04-29T00:00:42.693Z,12.89
2023-04-29T00:01:42.675Z,12.89
2023-04-29T00:02:42.876Z,12.89
2023-04-29T00:03:42.814Z,12.91
2023-04-29T00:04:42.746Z,12.91
2023-04-29T00:05:42.673Z,12.89
2023-04-29T00:06:42.646Z,12.89
2023-04-29T00:07:42.576Z,12.89
2023-04-29T00:08:42.597Z,12.89
2023-04-29T00:09:42.568Z,12.92
2023-04-29T00:10:42.575Z,12.94
2023-04-29T00:11:42.546Z,12.92
2023-04-29T00:12:42.516Z,12.94
2023-04-29T00:13:42.513Z,12.94
2023-04-29T00:14:42.537Z,12.94
2023-04-29T00:15:42.527Z,12.95
2023-04-29T00:16:42.574Z,12.94
2023-04-29T00:17:42.513Z,12.91
2023-04-29T00:18:42.491Z,12.88
2023-04-29T00:19:42.461Z,12.88
2023-04-29T00:20:42.440Z,12.87
2023-04-29T00:21:42.441Z,12.85
2023-04-29T00:22:42.426Z,12.87
2023-04-29T00:23:42.421Z,12.87
2023-04-29T00:24:42.396Z,12.88
2023-04-29T00:25:42.385Z,12.87
2023-04-29T00:26:42.372Z,12.87
2023-04-29T00:27:42.371Z,12.87
2023-04-29T00:28:42.362Z,12.85
2023-04-29T00:29:42.346Z,12.84
2023-04-29T00:30:42.361Z,12.81
2023-04-29T00:31:42.341Z,12.81
2023-04-29T00:32:42.357Z,12.81
2023-04-29T00:33:42.278Z,12.80
2023-04-29T00:34:42.298Z,12.80
2023-04-29T00:35:42.277Z,12.81
2023-04-29T00:36:42.252Z,12.81
2023-04-29T00:37:42.261Z,12.85
2023-04-29T00:38:42.230Z,12.87
2023-04-29T00:39:42.237Z,12.88
2023-04-29T00:40:42.207Z,12.88
2023-04-29T00:41:42.208Z,12.88
2023-04-29T00:42:42.202Z,12.87
2023-04-29T00:43:42.178Z,12.81
2023-04-29T00:44:42.149Z,12.81
2023-04-29T00:45:42.159Z,12.80
2023-04-29T00:46:42.165Z,12.84
2023-04-29T00:47:42.316Z,12.85
2023-04-29T00:48:42.105Z,12.87
2023-04-29T00:49:42.136Z,12.88
2023-04-29T00:50:42.108Z,12.88
2023-04-29T00:51:42.119Z,12.89
2023-04-29T00:52:42.065Z,12.92
2023-04-29T00:53:42.060Z,12.92
2023-04-29T00:54:42.041Z,12.92
2023-04-29T00:55:42.069Z,12.92
2023-04-29T00:56:42.053Z,12.91
2023-04-29T00:57:42.008Z,12.92
2023-04-29T00:58:42.020Z,12.92
2023-04-29T00:59:41.998Z,12.92
2023-04-29T01:00:41.975Z,12.92
2023-04-29T01:01:42.087Z,12.94
2023-04-29T01:02:42.040Z,12.94
2023-04-29T01:03:42.153Z,12.95
2023-04-29T01:04:41.962Z,12.96
2023-04-29T01:05:41.947Z,12.96
2023-04-29T01:06:41.923Z,12.96
2023-04-29T01:07:41.910Z,12.98
2023-04-29T01:08:41.891Z,12.96
2023-04-29T01:09:41.896Z,12.96
2023-04-29T01:10:41.855Z,12.96
2023-04-29T01:11:41.860Z,12.95
2023-04-29T01:12:41.853Z,12.94
2023-04-29T01:13:41.836Z,12.89
2023-04-29T01:14:41.803Z,12.87
2023-04-29T01:15:41.864Z,12.87
2023-04-29T01:16:41.781Z,12.85
2023-04-29T01:17:41.853Z,12.87
2023-04-29T01:18:41.792Z,12.88
2023-04-29T01:19:41.771Z,12.89
2023-04-29T01:20:41.745Z,12.91
2023-04-29T01:21:41.747Z,12.91
2023-04-29T01:22:41.722Z,12.91
2023-04-29T01:23:41.706Z,12.91
2023-04-29T01:24:41.717Z,12.94
2023-04-29T01:25:41.710Z,12.91
2023-04-29T01:26:41.683Z,12.91
2023-04-29T01:27:41.673Z,12.89
2023-04-29T01:28:41.644Z,12.89
2023-04-29T01:29:41.650Z,12.88
2023-04-29T01:30:41.652Z,12.89
2023-04-29T01:31:41.751Z,12.87
2023-04-29T01:32:41.658Z,12.87
2023-04-29T01:33:41.609Z,12.84
2023-04-29T01:34:41.584Z,12.79
2023-04-29T01:35:41.581Z,12.73
2023-04-29T01:36:41.589Z,12.69
2023-04-29T01:37:41.559Z,12.66
2023-04-29T01:38:41.560Z,12.62
2023-04-29T01:39:41.559Z,12.58
2023-04-29T01:40:41.530Z,12.58
2023-04-29T01:41:41.508Z,12.55
2023-04-29T01:42:41.487Z,12.56
2023-04-29T01:43:41.521Z,12.52
2023-04-29T01:44:41.486Z,12.54
2023-04-29T01:45:41.462Z,12.54
2023-04-29T01:46:41.518Z,12.55
2023-04-29T01:47:41.462Z,12.55
2023-04-29T01:48:41.461Z,12.56
2023-04-29T01:49:41.408Z,12.59
2023-04-29T01:50:41.419Z,12.59
2023-04-29T01:51:41.389Z,12.59
2023-04-29T01:52:41.383Z,12.56
2023-04-29T01:53:41.368Z,12.55
2023-04-29T01:54:41.389Z,12.52
2023-04-29T01:55:41.348Z,12.49
2023-04-29T01:56:41.367Z,12.49
2023-04-29T01:57:41.340Z,12.49
2023-04-29T01:58:41.314Z,12.49
2023-04-29T01:59:41.304Z,12.51
2023-04-29T02:00:41.325Z,12.49
2023-04-29T02:01:41.305Z,12.48
2023-04-29T02:02:41.383Z,12.46
2023-04-29T02:03:41.563Z,12.44
2023-04-29T02:04:41.288Z,12.44
2023-04-29T02:05:41.224Z,12.41
2023-04-29T02:06:41.270Z,12.44
2023-04-29T02:07:41.221Z,12.44
2023-04-29T02:08:41.190Z,12.46
2023-04-29T02:09:41.183Z,12.48
2023-04-29T02:10:41.178Z,12.49
2023-04-29T02:11:41.173Z,12.52
2023-04-29T02:12:41.149Z,12.52
2023-04-29T02:13:41.165Z,12.54
2023-04-29T02:14:41.150Z,12.55
2023-04-29T02:15:41.134Z,12.54
2023-04-29T02:16:41.179Z,12.51
2023-04-29T02:17:41.179Z,12.49
2023-04-29T02:18:41.102Z,12.44
2023-04-29T02:19:41.117Z,12.43
2023-04-29T02:20:41.081Z,12.40
2023-04-29T02:21:41.086Z,12.38
2023-04-29T02:22:41.051Z,12.40
2023-04-29T02:23:41.036Z,12.41
2023-04-29T02:24:41.022Z,12.43
2023-04-29T02:25:41.021Z,12.46
2023-04-29T02:26:40.991Z,12.48
2023-04-29T02:27:40.989Z,12.48
2023-04-29T02:28:40.978Z,12.52
2023-04-29T02:29:40.964Z,12.51
2023-04-29T02:30:40.980Z,12.52
2023-04-29T02:31:40.969Z,12.55
2023-04-29T02:32:40.967Z,12.56
2023-04-29T02:33:40.931Z,12.55
2023-04-29T02:34:40.898Z,12.56
2023-04-29T02:35:40.916Z,12.56
2023-04-29T02:36:40.881Z,12.52
2023-04-29T02:37:40.884Z,12.48
2023-04-29T02:38:40.861Z,12.48
2023-04-29T02:39:40.868Z,12.44
2023-04-29T02:40:40.837Z,12.46
2023-04-29T02:41:40.828Z,12.44
2023-04-29T02:42:40.813Z,12.44
2023-04-29T02:43:40.821Z,12.46
2023-04-29T02:44:40.805Z,12.41
2023-04-29T02:45:40.802Z,12.38
2023-04-29T02:46:40.770Z,12.40
2023-04-29T02:47:40.806Z,12.36
2023-04-29T02:48:40.754Z,12.33
2023-04-29T02:49:40.734Z,12.31
2023-04-29T02:50:40.736Z,12.29
2023-04-29T02:51:40.720Z,12.26
2023-04-29T02:52:40.685Z,12.23
2023-04-29T02:53:40.711Z,12.25
2023-04-29T02:54:40.674Z,12.26
2023-04-29T02:55:40.687Z,12.26
2023-04-29T02:56:40.662Z,12.26
2023-04-29T02:57:40.683Z,12.29
2023-04-29T02:58:40.638Z,12.31
2023-04-29T02:59:40.637Z,12.34
2023-04-29T03:00:40.592Z,12.36
2023-04-29T03:01:40.774Z,12.37
2023-04-29T03:02:40.703Z,12.37
2023-04-29T03:03:40.776Z,12.38
2023-04-29T03:04:40.556Z,12.40
2023-04-29T03:05:40.572Z,12.38
2023-04-29T03:06:40.550Z,12.37
2023-04-29T03:07:40.555Z,12.37
2023-04-29T03:08:40.511Z,12.34
2023-04-29T03:09:40.536Z,12.37
2023-04-29T03:10:41.629Z,12.36
2023-04-29T03:11:40.484Z,12.31
2023-04-29T03:12:40.525Z,12.31
2023-04-29T03:13:40.480Z,12.29
2023-04-29T03:14:40.439Z,12.30
2023-04-29T03:15:40.440Z,12.31
2023-04-29T03:16:40.460Z,12.33
2023-04-29T03:17:40.539Z,12.33
2023-04-29T03:18:40.410Z,12.33
2023-04-29T03:19:40.394Z,12.33
2023-04-29T03:20:40.413Z,12.34
2023-04-29T03:21:40.407Z,12.34
2023-04-29T03:22:40.365Z,12.36
2023-04-29T03:23:40.363Z,12.34
2023-04-29T03:24:40.323Z,12.30
2023-04-29T03:25:40.391Z,12.25
2023-04-29T03:26:40.324Z,12.19
2023-04-29T03:27:40.313Z,12.19
2023-04-29T03:28:40.294Z,12.18
2023-04-29T03:29:40.269Z,12.16
2023-04-29T03:30:40.257Z,12.16
2023-04-29T03:31:40.339Z,12.15
2023-04-29T03:32:40.297Z,12.13
2023-04-29T03:33:40.237Z,12.15
2023-04-29T03:34:40.238Z,12.16
2023-04-29T03:35:40.202Z,12.15
2023-04-29T03:36:40.220Z,12.18
2023-04-29T03:37:40.197Z,12.19
2023-04-29T03:38:40.178Z,12.21
2023-04-29T03:39:40.163Z,12.23
2023-04-29T03:40:40.172Z,12.23
2023-04-29T03:41:40.181Z,12.25
2023-04-29T03:42:40.135Z,12.25
2023-04-29T03:43:40.164Z,12.26
2023-04-29T03:44:40.156Z,12.30
2023-04-29T03:45:40.151Z,12.30
2023-04-29T03:46:40.281Z,12.31
2023-04-29T03:47:40.116Z,12.33
2023-04-29T03:48:40.072Z,12.31
2023-04-29T03:49:40.145Z,12.31
2023-04-29T03:50:40.041Z,12.30
2023-04-29T03:51:40.024Z,12.30
2023-04-29T03:52:39.996Z,12.25
2023-04-29T03:53:40.017Z,12.19
2023-04-29T03:54:40.034Z,12.13
2023-04-29T03:55:39.978Z,12.11
2023-04-29T03:56:39.965Z,12.11
2023-04-29T03:57:42.254Z,12.13
2023-04-29T03:58:39.953Z,12.15
2023-04-29T03:59:39.950Z,12.13
2023-04-29T04:00:39.929Z,12.11
2023-04-29T04:01:40.029Z,12.05
2023-04-29T04:02:40.161Z,12.03
2023-04-29T04:03:39.973Z,12.00
2023-04-29T04:04:40.023Z,12.01
2023-04-29T04:05:39.862Z,12.04
2023-04-29T04:06:39.847Z,12.04
2023-04-29T04:07:39.843Z,12.05
2023-04-29T04:08:39.826Z,12.01
2023-04-29T04:09:39.812Z,11.94
2023-04-29T04:10:39.821Z,11.88
2023-04-29T04:11:39.807Z,11.87
2023-04-29T04:12:40.573Z,11.87
2023-04-29T04:13:39.759Z,11.87
2023-04-29T04:14:39.798Z,11.90
2023-04-29T04:15:39.761Z,11.94
2023-04-29T04:16:39.829Z,11.93
2023-04-29T04:17:39.736Z,11.94
2023-04-29T04:18:39.714Z,11.93
2023-04-29T04:19:39.703Z,11.96
2023-04-29T04:20:39.691Z,11.96
2023-04-29T04:21:39.682Z,11.96
2023-04-29T04:22:39.678Z,11.94
2023-04-29T04:23:39.660Z,11.96
2023-04-29T04:24:39.673Z,11.96
2023-04-29T04:25:39.638Z,11.96
2023-04-29T04:26:39.624Z,11.94
2023-04-29T04:27:39.623Z,11.93
2023-04-29T04:28:39.599Z,11.85
2023-04-29T04:29:39.578Z,11.79
2023-04-29T04:30:39.568Z,11.75
2023-04-29T04:31:39.674Z,11.75
2023-04-29T04:32:39.584Z,11.75
2023-04-29T04:33:39.547Z,11.75
2023-04-29T04:34:39.531Z,11.77
2023-04-29T04:35:39.525Z,11.77
2023-04-29T04:36:39.513Z,11.77
2023-04-29T04:37:39.508Z,11.79
2023-04-29T04:38:39.481Z,11.81
2023-04-29T04:39:39.476Z,11.85
2023-04-29T04:40:39.477Z,11.90
2023-04-29T04:41:39.491Z,11.96
2023-04-29T04:42:39.453Z,11.96
2023-04-29T04:43:39.444Z,11.90
2023-04-29T04:44:39.444Z,11.88
2023-04-29T04:45:39.436Z,11.85
2023-04-29T04:46:39.409Z,11.84
2023-04-29T04:47:39.401Z,11.85
2023-04-29T04:48:39.388Z,11.87
2023-04-29T04:49:39.379Z,11.88
2023-04-29T04:50:39.367Z,11.90
2023-04-29T04:51:39.401Z,11.90
2023-04-29T04:52:39.334Z,11.90
2023-04-29T04:53:39.318Z,11.88
2023-04-29T04:54:39.334Z,11.88
2023-04-29T04:55:39.287Z,11.90
2023-04-29T04:56:39.298Z,11.88
2023-04-29T04:57:39.273Z,11.84
2023-04-29T04:58:39.260Z,11.84
2023-04-29T04:59:39.242Z,11.85
2023-04-29T05:00:39.252Z,11.85
2023-04-29T05:01:39.315Z,11.87
2023-04-29T05:02:39.361Z,11.85
2023-04-29T05:03:39.534Z,11.87
2023-04-29T05:04:39.216Z,11.84
2023-04-29T05:05:39.175Z,11.87
2023-04-29T05:06:39.200Z,11.82
2023-04-29T05:07:39.166Z,11.78
2023-04-29T05:08:39.162Z,11.82
2023-04-29T05:09:39.139Z,11.84
2023-04-29T05:10:39.161Z,11.82
2023-04-29T05:11:39.134Z,11.85
2023-04-29T05:12:39.119Z,11.90
2023-04-29T05:13:39.118Z,11.93
2023-04-29T05:14:39.091Z,11.88
2023-04-29T05:15:39.092Z,11.84
2023-04-29T05:16:39.088Z,11.79
2023-04-29T05:17:39.081Z,11.77
2023-04-29T05:18:39.050Z,11.75
2023-04-29T05:19:39.021Z,11.77
2023-04-29T05:20:39.050Z,11.74
2023-04-29T05:21:38.998Z,11.69
2023-04-29T05:22:39.010Z,11.67
2023-04-29T05:23:39.015Z,11.72
2023-04-29T05:24:38.983Z,11.79
2023-04-29T05:25:38.949Z,11.85
2023-04-29T05:26:38.959Z,11.87
2023-04-29T05:27:38.924Z,11.84
2023-04-29T05:28:38.936Z,11.84
2023-04-29T05:29:38.913Z,11.84
2023-04-29T05:30:38.943Z,11.77
2023-04-29T05:31:38.884Z,11.69
2023-04-29T05:32:38.923Z,11.64
2023-04-29T05:33:38.861Z,11.62
2023-04-29T05:34:38.862Z,11.60
2023-04-29T05:35:38.859Z,11.62
2023-04-29T05:36:38.828Z,11.62
2023-04-29T05:37:38.833Z,11.64
2023-04-29T05:38:38.817Z,11.69
2023-04-29T05:39:38.816Z,11.74
2023-04-29T05:40:38.833Z,11.74
2023-04-29T05:41:38.785Z,11.75
2023-04-29T05:42:38.763Z,11.75
2023-04-29T05:43:38.761Z,11.79
2023-04-29T05:44:38.752Z,11.79
2023-04-29T05:45:38.737Z,11.82
2023-04-29T05:46:38.803Z,11.82
2023-04-29T05:47:38.750Z,11.78
2023-04-29T05:48:38.726Z,11.75
2023-04-29T05:49:38.686Z,11.74
2023-04-29T05:50:38.674Z,11.77
2023-04-29T05:51:38.678Z,11.78
2023-04-29T05:52:38.680Z,11.77
2023-04-29T05:53:38.798Z,11.81
2023-04-29T05:54:38.695Z,11.84
2023-04-29T05:55:38.631Z,11.84
2023-04-29T05:56:38.618Z,11.75
2023-04-29T05:57:38.611Z,11.77
2023-04-29T05:58:38.620Z,11.79
2023-04-29T05:59:38.571Z,11.74
2023-04-29T06:00:38.564Z,11.66
2023-04-29T06:01:38.560Z,11.63
2023-04-29T06:02:44.327Z,11.62
2023-04-29T06:03:38.775Z,11.63
2023-04-29T06:04:38.819Z,11.64
2023-04-29T06:05:38.693Z,11.67
2023-04-29T06:06:38.492Z,11.67
2023-04-29T06:07:38.530Z,11.70
2023-04-29T06:08:38.471Z,11.70
2023-04-29T06:09:38.501Z,11.72
2023-04-29T06:10:38.467Z,11.74
2023-04-29T06:11:38.457Z,11.74
2023-04-29T06:12:38.434Z,11.75
2023-04-29T06:13:38.422Z,11.75
2023-04-29T06:14:38.433Z,11.75
2023-04-29T06:15:38.475Z,11.77
2023-04-29T06:16:38.411Z,11.78
2023-04-29T06:17:38.444Z,11.78
2023-04-29T06:18:38.394Z,11.78
2023-04-29T06:19:38.343Z,11.78
2023-04-29T06:20:38.338Z,11.79
2023-04-29T06:21:38.331Z,11.84
2023-04-29T06:22:38.315Z,11.87
2023-04-29T06:23:38.322Z,11.90
2023-04-29T06:24:38.287Z,11.96
2023-04-29T06:25:38.283Z,11.97
2023-04-29T06:26:38.281Z,11.98
2023-04-29T06:27:38.262Z,11.94
2023-04-29T06:28:38.262Z,11.94
2023-04-29T06:29:38.307Z,11.97
2023-04-29T06:30:38.255Z,11.93
2023-04-29T06:31:38.272Z,11.93
2023-04-29T06:32:38.283Z,11.96
2023-04-29T06:33:38.208Z,12.01
2023-04-29T06:34:38.178Z,12.05
2023-04-29T06:35:38.159Z,12.08
2023-04-29T06:36:38.172Z,12.12
2023-04-29T06:37:38.409Z,12.15
2023-04-29T06:38:38.135Z,12.18
2023-04-29T06:39:38.122Z,12.21
2023-04-29T06:40:38.108Z,12.23
2023-04-29T06:41:38.099Z,12.25
2023-04-29T06:42:38.097Z,12.26
2023-04-29T06:43:38.067Z,12.26
2023-04-29T06:44:38.079Z,12.30
2023-04-29T06:45:38.049Z,12.36
2023-04-29T06:46:38.068Z,12.25
2023-04-29T06:47:38.126Z,12.23
2023-04-29T06:48:38.041Z,12.23
2023-04-29T06:49:38.104Z,12.26
2023-04-29T06:50:38.008Z,12.31
2023-04-29T06:51:38.074Z,12.21
2023-04-29T06:52:37.975Z,12.15
2023-04-29T06:53:37.968Z,12.15
2023-04-29T06:54:37.952Z,12.15
2023-04-29T06:55:37.946Z,12.15
2023-04-29T06:56:37.932Z,12.15
2023-04-29T06:57:37.925Z,12.15
2023-04-29T06:58:37.951Z,12.18
2023-04-29T06:59:37.901Z,12.19
2023-04-29T07:00:37.900Z,12.23
2023-04-29T07:01:37.994Z,12.30
2023-04-29T07:02:37.909Z,12.34
2023-04-29T07:03:38.105Z,12.31
2023-04-29T07:04:37.916Z,12.29
2023-04-29T07:05:37.839Z,12.29
2023-04-29T07:06:37.821Z,12.26
2023-04-29T07:07:37.838Z,12.18
2023-04-29T07:08:37.802Z,12.19
2023-04-29T07:09:37.801Z,12.23
2023-04-29T07:10:37.799Z,12.31
2023-04-29T07:11:37.739Z,12.37
2023-04-29T07:12:37.768Z,12.37
2023-04-29T07:13:37.736Z,12.33
2023-04-29T07:14:37.771Z,12.37
2023-04-29T07:15:37.692Z,12.38
2023-04-29T07:16:37.781Z,12.40
2023-04-29T07:17:37.747Z,12.44
2023-04-29T07:18:37.687Z,12.46
2023-04-29T07:19:37.666Z,12.46
2023-04-29T07:20:37.669Z,12.44
2023-04-29T07:21:37.635Z,12.49
2023-04-29T07:22:37.633Z,12.52
2023-04-29T07:23:37.611Z,12.55
2023-04-29T07:24:37.627Z,12.58
2023-04-29T07:25:37.596Z,12.62
2023-04-29T07:26:37.621Z,12.62
2023-04-29T07:27:37.587Z,12.66
2023-04-29T07:28:37.561Z,12.59
2023-04-29T07:29:37.577Z,12.48
2023-04-29T07:30:37.577Z,12.37
2023-04-29T07:31:38.497Z,12.40
2023-04-29T07:32:37.555Z,12.43
2023-04-29T07:33:37.531Z,12.49
2023-04-29T07:34:37.499Z,12.54
2023-04-29T07:35:37.477Z,12.55
2023-04-29T07:36:37.527Z,12.59
2023-04-29T07:37:37.479Z,12.66
2023-04-29T07:38:37.465Z,12.69
2023-04-29T07:39:37.431Z,12.67
2023-04-29T07:40:37.431Z,12.70
2023-04-29T07:41:37.410Z,12.74
2023-04-29T07:42:37.388Z,12.80
2023-04-29T07:43:37.418Z,12.80
2023-04-29T07:44:37.375Z,12.84
2023-04-29T07:45:37.358Z,12.77
2023-04-29T07:46:37.411Z,12.77
2023-04-29T07:47:37.361Z,12.77
2023-04-29T07:48:37.326Z,12.84
2023-04-29T07:49:37.325Z,12.88
2023-04-29T07:50:37.349Z,12.94
2023-04-29T07:51:37.316Z,12.99
2023-04-29T07:52:37.297Z,13.07
2023-04-29T07:53:37.262Z,13.14
2023-04-29T07:54:37.294Z,13.24
2023-04-29T07:55:37.250Z,13.31
2023-04-29T07:56:37.240Z,13.38
2023-04-29T07:57:37.225Z,13.44
2023-04-29T07:58:37.226Z,13.50
2023-04-29T07:59:37.206Z,13.55
2023-04-29T08:00:37.236Z,13.59
2023-04-29T08:01:37.183Z,13.63
2023-04-29T08:02:37.268Z,13.68
2023-04-29T08:03:39.777Z,13.72
2023-04-29T08:04:37.392Z,13.79
2023-04-29T08:05:37.346Z,13.83
2023-04-29T08:06:37.136Z,13.83
2023-04-29T08:07:37.131Z,13.81
2023-04-29T08:08:37.101Z,13.81
2023-04-29T08:09:37.086Z,13.69
2023-04-29T08:10:37.095Z,13.53
2023-04-29T08:11:37.090Z,13.48
2023-04-29T08:12:37.072Z,13.53
2023-04-29T08:13:37.035Z,13.61
2023-04-29T08:14:37.046Z,13.68
2023-04-29T08:15:37.004Z,13.73
2023-04-29T08:16:37.069Z,13.76
2023-04-29T08:17:37.008Z,13.81
2023-04-29T08:18:37.055Z,13.88
2023-04-29T08:19:36.988Z,13.90
2023-04-29T08:20:36.979Z,13.90
2023-04-29T08:21:37.000Z,13.91
2023-04-29T08:22:36.948Z,13.91
2023-04-29T08:23:36.922Z,13.91
2023-04-29T08:24:36.918Z,13.87
2023-04-29T08:25:36.922Z,13.68
2023-04-29T08:26:36.902Z,13.50
2023-04-29T08:27:36.911Z,13.44
2023-04-29T08:28:36.887Z,13.41
2023-04-29T08:29:36.888Z,13.36
2023-04-29T08:30:36.844Z,13.39
2023-04-29T08:31:36.885Z,13.46
2023-04-29T08:32:36.884Z,13.51
2023-04-29T08:33:36.884Z,13.55
2023-04-29T08:34:36.818Z,13.63
2023-04-29T08:35:36.791Z,13.63
2023-04-29T08:36:36.808Z,13.63
2023-04-29T08:37:36.781Z,13.65
2023-04-29T08:38:36.947Z,13.72
2023-04-29T08:39:36.742Z,13.81
2023-04-29T08:40:36.759Z,13.87
2023-04-29T08:41:36.733Z,13.93
2023-04-29T08:42:36.732Z,13.99
2023-04-29T08:43:36.714Z,14.08
2023-04-29T08:44:36.685Z,14.16
2023-04-29T08:45:36.723Z,14.19
2023-04-29T08:46:36.689Z,14.26
2023-04-29T08:47:36.714Z,14.29
2023-04-29T08:48:36.688Z,14.34
2023-04-29T08:49:36.647Z,14.39
2023-04-29T08:50:36.643Z,14.46
2023-04-29T08:51:36.626Z,14.53
2023-04-29T08:52:36.628Z,14.54
2023-04-29T08:53:36.598Z,14.59
2023-04-29T08:54:36.619Z,14.59
2023-04-29T08:55:36.578Z,14.45
2023-04-29T08:56:36.564Z,14.26
2023-04-29T08:57:36.553Z,14.23
2023-04-29T08:58:36.561Z,14.09
2023-04-29T08:59:36.564Z,14.05
2023-04-29T09:00:36.534Z,14.11
2023-04-29T09:01:36.630Z,14.20
2023-04-29T09:02:36.529Z,14.26
2023-04-29T09:03:36.612Z,14.30
2023-04-29T09:04:36.502Z,14.36
2023-04-29T09:05:36.507Z,14.44
2023-04-29T09:06:36.450Z,14.48
2023-04-29T09:07:36.473Z,14.53
2023-04-29T09:08:36.420Z,14.52
2023-04-29T09:09:36.431Z,14.54
2023-04-29T09:10:36.410Z,14.53
2023-04-29T09:11:36.487Z,14.52
2023-04-29T09:12:36.389Z,14.52
2023-04-29T09:13:36.395Z,14.53
2023-04-29T09:14:36.342Z,14.53
2023-04-29T09:15:36.381Z,14.53
2023-04-29T09:16:36.353Z,14.59
2023-04-29T09:17:36.376Z,14.60
2023-04-29T09:18:36.325Z,14.61
2023-04-29T09:19:36.320Z,14.63
2023-04-29T09:20:36.286Z,14.64
2023-04-29T09:21:36.287Z,14.64
2023-04-29T09:22:36.277Z,14.69
2023-04-29T09:23:36.307Z,14.67
2023-04-29T09:24:36.232Z,14.64
2023-04-29T09:25:36.249Z,14.61
2023-04-29T09:26:36.222Z,14.57
2023-04-29T09:27:36.230Z,14.60
2023-04-29T09:28:36.204Z,14.61
2023-04-29T09:29:36.210Z,14.66
2023-04-29T09:30:36.174Z,14.69
2023-04-29T09:31:36.229Z,14.72
2023-04-29T09:32:38.465Z,14.72
2023-04-29T09:33:36.160Z,14.71
2023-04-29T09:34:36.139Z,14.66
2023-04-29T09:35:36.193Z,14.64
2023-04-29T09:36:36.104Z,14.61
2023-04-29T09:37:36.127Z,14.67
2023-04-29T09:38:36.106Z,14.66
2023-04-29T09:39:36.095Z,14.57
2023-04-29T09:40:46.559Z,14.53
2023-04-29T09:41:36.065Z,14.48
2023-04-29T09:42:36.040Z,14.52
2023-04-29T09:43:36.048Z,14.49
2023-04-29T09:44:36.060Z,14.56
2023-04-29T09:45:36.013Z,14.60
2023-04-29T09:46:36.130Z,14.67
2023-04-29T09:47:36.068Z,14.72
2023-04-29T09:48:36.004Z,14.78
2023-04-29T09:49:35.979Z,14.83
2023-04-29T09:50:35.965Z,14.93
2023-04-29T09:51:35.963Z,15.01
2023-04-29T09:52:35.939Z,15.01
2023-04-29T09:53:36.051Z,15.03
2023-04-29T09:54:35.949Z,15.04
2023-04-29T09:55:35.912Z,15.07
2023-04-29T09:56:35.947Z,15.05
2023-04-29T09:57:35.890Z,15.05
2023-04-29T09:58:35.884Z,15.04
2023-04-29T09:59:35.918Z,15.05
2023-04-29T10:00:35.867Z,15.05
2023-04-29T10:01:35.853Z,15.03
2023-04-29T10:02:35.895Z,15.01
2023-04-29T10:03:36.055Z,14.98
2023-04-29T10:04:36.678Z,15.00
2023-04-29T10:05:35.813Z,15.09
2023-04-29T10:06:35.780Z,15.20
2023-04-29T10:07:35.807Z,15.34
2023-04-29T10:08:35.836Z,15.46
2023-04-29T10:09:35.755Z,15.53
2023-04-29T10:10:35.735Z,15.44
2023-04-29T10:11:35.722Z,15.34
2023-04-29T10:12:35.710Z,15.15
2023-04-29T10:13:35.707Z,14.95
2023-04-29T10:14:35.713Z,14.78
2023-04-29T10:15:35.731Z,14.57
2023-04-29T10:16:35.751Z,14.60
2023-04-29T10:17:35.660Z,14.60
2023-04-29T10:18:35.718Z,14.61
2023-04-29T10:19:35.663Z,14.59
2023-04-29T10:20:35.634Z,14.49
2023-04-29T10:21:35.630Z,14.56
2023-04-29T10:22:35.612Z,14.60
2023-04-29T10:23:35.592Z,14.54
2023-04-29T10:24:35.679Z,14.46
2023-04-29T10:25:35.573Z,14.49
2023-04-29T10:26:35.633Z,14.49
2023-04-29T10:27:35.566Z,14.46
2023-04-29T10:28:35.547Z,14.54
2023-04-29T10:29:35.544Z,14.63
2023-04-29T10:30:35.562Z,14.75
2023-04-29T10:31:35.609Z,14.83
2023-04-29T10:32:49.726Z,14.95
2023-04-29T10:33:35.549Z,14.87
2023-04-29T10:34:35.470Z,14.94
2023-04-29T10:35:35.495Z,15.05
2023-04-29T10:36:35.461Z,15.19
2023-04-29T10:37:35.445Z,15.33
2023-04-29T10:38:35.439Z,15.40
2023-04-29T10:39:35.428Z,15.41
2023-04-29T10:40:35.422Z,15.30
2023-04-29T10:41:35.397Z,15.18
2023-04-29T10:42:35.524Z,15.18
2023-04-29T10:43:35.387Z,15.27
2023-04-29T10:44:35.377Z,15.43
2023-04-29T10:45:35.363Z,15.48
2023-04-29T10:46:35.402Z,15.48
2023-04-29T10:47:35.367Z,15.22
2023-04-29T10:48:35.347Z,15.07
2023-04-29T10:49:35.342Z,15.20
2023-04-29T10:50:35.385Z,15.34
2023-04-29T10:51:35.317Z,15.49
2023-04-29T10:52:35.296Z,15.64
2023-04-29T10:53:35.269Z,15.76
2023-04-29T10:54:35.259Z,15.76
2023-04-29T10:55:35.258Z,15.70
2023-04-29T10:56:35.240Z,15.77
2023-04-29T10:57:35.244Z,15.86
2023-04-29T10:58:35.217Z,15.98
2023-04-29T10:59:35.218Z,16.08
2023-04-29T11:00:35.194Z,16.22
2023-04-29T11:01:35.224Z,16.29
2023-04-29T11:02:35.229Z,16.17
2023-04-29T11:03:35.348Z,16.06
2023-04-29T11:04:35.202Z,16.01
2023-04-29T11:05:35.155Z,15.98
2023-04-29T11:06:35.137Z,15.89
2023-04-29T11:07:35.136Z,15.88
2023-04-29T11:08:35.134Z,15.93
2023-04-29T11:09:35.116Z,15.74
2023-04-29T11:10:35.104Z,15.59
2023-04-29T11:11:35.087Z,15.55
2023-04-29T11:12:35.081Z,15.67
2023-04-29T11:13:35.064Z,15.76
2023-04-29T11:14:35.085Z,15.85
2023-04-29T11:15:35.070Z,16.01
2023-04-29T11:16:35.118Z,16.18
2023-04-29T11:17:35.040Z,16.41
2023-04-29T11:18:35.015Z,16.59
2023-04-29T11:19:35.030Z,16.60
2023-04-29T11:20:34.985Z,16.66
2023-04-29T11:21:34.984Z,16.78
2023-04-29T11:22:34.970Z,16.88
2023-04-29T11:23:34.963Z,16.87
2023-04-29T11:24:34.953Z,16.48
2023-04-29T11:25:35.356Z,16.36
2023-04-29T11:26:34.953Z,16.10
2023-04-29T11:27:34.925Z,16.23
2023-04-29T11:28:34.914Z,16.41
2023-04-29T11:29:34.899Z,16.54
2023-04-29T11:30:34.903Z,16.27
2023-04-29T11:31:34.923Z,16.33
2023-04-29T11:32:34.954Z,16.25
2023-04-29T11:33:34.922Z,16.26
2023-04-29T11:34:34.879Z,16.34
2023-04-29T11:35:34.834Z,16.48
2023-04-29T11:36:35.463Z,16.59
2023-04-29T11:37:34.822Z,16.65
2023-04-29T11:38:34.813Z,16.77
2023-04-29T11:39:34.902Z,16.65
2023-04-29T11:40:34.892Z,16.33
2023-04-29T11:41:34.907Z,16.22
2023-04-29T11:42:34.757Z,16.34
2023-04-29T11:43:34.750Z,16.51
2023-04-29T11:44:34.748Z,16.69
2023-04-29T11:45:34.742Z,16.57
2023-04-29T11:46:34.762Z,16.45
2023-04-29T11:47:34.738Z,16.47
2023-04-29T11:48:34.714Z,16.47
2023-04-29T11:49:34.703Z,16.32
2023-04-29T11:50:34.709Z,16.42
2023-04-29T11:51:34.701Z,16.45
2023-04-29T11:52:34.663Z,16.57
2023-04-29T11:53:34.659Z,16.59
2023-04-29T11:54:34.653Z,16.55
2023-04-29T11:55:34.637Z,16.51
2023-04-29T11:56:34.620Z,16.54
2023-04-29T11:57:34.606Z,16.57
2023-04-29T11:58:34.599Z,16.37
2023-04-29T11:59:34.600Z,16.33
2023-04-29T12:00:34.642Z,16.36
2023-04-29T12:01:34.571Z,16.41
2023-04-29T12:02:34.734Z,16.47
2023-04-29T12:03:34.737Z,16.48
2023-04-29T12:04:34.662Z,16.44
2023-04-29T12:05:34.631Z,16.45
2023-04-29T12:06:34.524Z,16.48
2023-04-29T12:07:34.507Z,16.59
2023-04-29T12:08:34.488Z,16.72
2023-04-29T12:09:34.495Z,16.81
2023-04-29T12:10:34.476Z,16.87
2023-04-29T12:11:34.489Z,16.98
2023-04-29T12:12:34.461Z,17.05
2023-04-29T12:13:34.463Z,16.96
2023-04-29T12:14:34.443Z,16.78
2023-04-29T12:15:34.443Z,16.72
2023-04-29T12:16:34.445Z,16.81
2023-04-29T12:17:34.467Z,16.95
2023-04-29T12:18:34.394Z,17.06
2023-04-29T12:19:34.400Z,17.22
2023-04-29T12:20:34.385Z,17.32
2023-04-29T12:21:34.377Z,17.42
2023-04-29T12:22:34.350Z,17.53
2023-04-29T12:23:34.334Z,17.63
2023-04-29T12:24:34.342Z,17.62
2023-04-29T12:25:34.329Z,17.58
2023-04-29T12:26:34.331Z,17.54
2023-04-29T12:27:34.315Z,17.58
2023-04-29T12:28:34.291Z,17.60
2023-04-29T12:29:34.294Z,17.63
2023-04-29T12:30:34.259Z,17.74
2023-04-29T12:31:34.313Z,17.79
2023-04-29T12:32:34.281Z,17.89
2023-04-29T12:33:34.272Z,17.96
2023-04-29T12:34:34.237Z,17.46
2023-04-29T12:35:34.222Z,17.07
2023-04-29T12:36:34.237Z,16.98
2023-04-29T12:37:34.213Z,17.12
2023-04-29T12:38:34.204Z,17.28
2023-04-29T12:39:34.204Z,17.40
2023-04-29T12:40:34.163Z,17.57
2023-04-29T12:41:34.150Z,17.84
2023-04-29T12:42:34.177Z,18.07
2023-04-29T12:43:34.127Z,18.21
2023-04-29T12:44:34.171Z,17.76
2023-04-29T12:45:34.125Z,17.47
2023-04-29T12:46:34.158Z,17.35
2023-04-29T12:47:34.114Z,17.42
2023-04-29T12:48:34.241Z,17.47
2023-04-29T12:49:34.053Z,17.60
2023-04-29T12:50:34.047Z,17.68
2023-04-29T12:51:34.049Z,17.55
2023-04-29T12:52:36.393Z,17.06